createdAt,value
2018-09-28T00:00:40.373Z,20.79
2018-09-28T00:01:40.453Z,20.79
2018-09-28T00:02:40.518Z,20.80
2018-09-28T00:03:40.514Z,20.81
2018-09-28T00:04:40.577Z,20.76
2018-09-28T00:05:40.683Z,20.81
2018-09-28T00:06:40.651Z,20.77
2018-09-28T00:07:40.685Z,20.83
2018-09-28T00:08:40.720Z,20.76
2018-09-28T00:09:40.794Z,20.81
2018-09-28T00:10:40.811Z,20.86
2018-09-28T00:11:40.912Z,20.87
2018-09-28T00:12:40.942Z,20.81
2018-09-28T00:13:41.026Z,20.80
2018-09-28T00:14:41.030Z,20.83
2018-09-28T00:15:41.073Z,20.84
2018-09-28T00:16:41.124Z,20.86
2018-09-28T00:17:41.167Z,20.83
2018-09-28T00:18:41.210Z,20.86
2018-09-28T00:19:41.246Z,20.84
2018-09-28T00:20:41.304Z,20.83
2018-09-28T00:21:41.354Z,20.81
2018-09-28T00:22:41.406Z,20.84
2018-09-28T00:23:41.425Z,20.84
2018-09-28T00:24:41.508Z,20.96
2018-09-28T00:25:41.514Z,20.95
2018-09-28T00:26:41.604Z,20.95
2018-09-28T00:27:41.600Z,20.89
2018-09-28T00:28:41.705Z,20.91
2018-09-28T00:29:41.692Z,20.95
2018-09-28T00:30:41.742Z,20.90
2018-09-28T00:31:41.808Z,20.87
2018-09-28T00:32:41.905Z,20.89
2018-09-28T00:33:41.889Z,20.80
2018-09-28T00:34:41.940Z,20.89
2018-09-28T00:35:42.035Z,20.80
2018-09-28T00:36:42.034Z,20.89
2018-09-28T00:37:42.089Z,20.76
2018-09-28T00:38:42.133Z,20.72
2018-09-28T00:39:42.180Z,20.79
2018-09-28T00:40:42.214Z,20.68
2018-09-28T00:41:42.262Z,20.72
2018-09-28T00:42:42.308Z,20.66
2018-09-28T00:43:42.335Z,20.65
2018-09-28T00:44:42.372Z,20.69
2018-09-28T00:45:42.475Z,20.68
2018-09-28T00:46:42.527Z,20.69
2018-09-28T00:47:42.508Z,20.69
2018-09-28T00:48:42.574Z,20.69
2018-09-28T00:49:42.594Z,20.66
2018-09-28T00:50:42.662Z,20.66
2018-09-28T00:51:42.687Z,20.64
2018-09-28T00:52:42.760Z,20.69
2018-09-28T00:53:42.766Z,20.65
2018-09-28T00:54:42.851Z,20.62
2018-09-28T00:55:42.867Z,20.62
2018-09-28T00:56:42.934Z,20.64
2018-09-28T00:57:43.007Z,20.66
2018-09-28T00:58:43.015Z,20.69
2018-09-28T00:59:43.078Z,20.69
2018-09-28T01:00:43.118Z,20.72
2018-09-28T01:01:43.169Z,20.72
2018-09-28T01:02:43.212Z,20.71
2018-09-28T01:03:43.243Z,20.74
2018-09-28T01:04:43.296Z,20.65
2018-09-28T01:05:43.385Z,20.71
2018-09-28T01:06:43.379Z,20.68
2018-09-28T01:07:43.419Z,20.76
2018-09-28T01:08:43.481Z,20.74
2018-09-28T01:09:43.548Z,20.80
2018-09-28T01:10:43.577Z,20.83
2018-09-28T01:11:43.646Z,20.81
2018-09-28T01:12:43.638Z,20.68
2018-09-28T01:13:43.719Z,20.74
2018-09-28T01:14:43.792Z,20.86
2018-09-28T01:15:43.782Z,20.81
2018-09-28T01:16:43.858Z,20.81
2018-09-28T01:17:43.892Z,20.84
2018-09-28T01:18:43.957Z,20.80
2018-09-28T01:19:43.985Z,20.76
2018-09-28T01:20:44.038Z,20.83
2018-09-28T01:21:44.075Z,20.80
2018-09-28T01:22:44.108Z,20.81
2018-09-28T01:23:44.183Z,20.83
2018-09-28T01:24:44.234Z,20.80
2018-09-28T01:25:44.237Z,20.71
2018-09-28T01:26:44.340Z,20.84
2018-09-28T01:27:44.340Z,20.77
2018-09-28T01:28:44.394Z,20.79
2018-09-28T01:29:44.439Z,20.77
2018-09-28T01:30:44.470Z,20.80
2018-09-28T01:31:44.524Z,20.81
2018-09-28T01:32:44.623Z,20.84
2018-09-28T01:33:44.614Z,20.77
2018-09-28T01:34:44.683Z,20.72
2018-09-28T01:35:44.704Z,20.79
2018-09-28T01:36:44.774Z,20.76
2018-09-28T01:37:44.785Z,20.83
2018-09-28T01:38:44.832Z,20.80
2018-09-28T01:39:44.909Z,20.79
2018-09-28T01:40:45.015Z,20.79
2018-09-28T01:41:44.991Z,20.84
2018-09-28T01:42:45.040Z,20.89
2018-09-28T01:43:45.086Z,20.83
2018-09-28T01:44:45.124Z,20.77
2018-09-28T01:45:45.176Z,20.77
2018-09-28T01:46:45.226Z,20.77
2018-09-28T01:47:45.247Z,20.84
2018-09-28T01:48:45.310Z,20.81
2018-09-28T01:49:45.347Z,20.68
2018-09-28T01:50:45.390Z,20.81
2018-09-28T01:51:45.440Z,20.80
2018-09-28T01:52:45.507Z,20.83
2018-09-28T01:53:45.521Z,20.64
2018-09-28T01:54:45.589Z,20.71
2018-09-28T01:55:45.637Z,20.69
2018-09-28T01:56:45.697Z,20.68
2018-09-28T01:57:45.735Z,20.66
2018-09-28T01:58:45.772Z,20.64
2018-09-28T01:59:45.823Z,20.66
2018-09-28T02:00:45.864Z,20.69
2018-09-28T02:01:45.897Z,20.68
2018-09-28T02:02:45.954Z,20.83
2018-09-28T02:03:45.974Z,20.71
2018-09-28T02:04:46.087Z,20.71
2018-09-28T02:05:46.089Z,20.74
2018-09-28T02:06:46.146Z,20.61
2018-09-28T02:07:46.161Z,20.64
2018-09-28T02:08:46.205Z,20.66
2018-09-28T02:09:46.265Z,20.53
2018-09-28T02:10:46.327Z,20.65
2018-09-28T02:11:46.343Z,20.53
2018-09-28T02:12:46.414Z,20.54
2018-09-28T02:13:46.445Z,20.56
2018-09-28T02:14:46.481Z,20.53
2018-09-28T02:15:46.554Z,20.61
2018-09-28T02:16:46.565Z,20.56
2018-09-28T02:17:46.646Z,20.64
2018-09-28T02:18:46.663Z,20.64
2018-09-28T02:19:46.710Z,20.66
2018-09-28T02:20:46.775Z,20.53
2018-09-28T02:21:46.827Z,20.51
2018-09-28T02:22:46.853Z,20.68
2018-09-28T02:23:47.111Z,20.65
2018-09-28T02:24:46.948Z,20.59
2018-09-28T02:25:46.995Z,20.69
2018-09-28T02:26:47.042Z,20.69
2018-09-28T02:27:47.136Z,20.68
2018-09-28T02:28:47.159Z,20.66
2018-09-28T02:29:47.186Z,20.69
2018-09-28T02:30:47.215Z,20.71
2018-09-28T02:31:47.267Z,20.69
2018-09-28T02:32:47.316Z,20.66
2018-09-28T02:33:47.392Z,20.71
2018-09-28T02:34:47.460Z,20.71
2018-09-28T02:35:47.497Z,20.69
2018-09-28T02:36:47.501Z,20.71
2018-09-28T02:37:47.547Z,20.69
2018-09-28T02:38:47.597Z,20.68
2018-09-28T02:39:47.631Z,20.68
2018-09-28T02:40:47.677Z,20.72
2018-09-28T02:41:47.712Z,20.71
2018-09-28T02:42:47.766Z,20.69
2018-09-28T02:43:47.810Z,20.66
2018-09-28T02:44:47.865Z,20.71
2018-09-28T02:45:47.919Z,20.71
2018-09-28T02:46:47.950Z,20.72
2018-09-28T02:47:48.010Z,20.69
2018-09-28T02:48:48.034Z,20.69
2018-09-28T02:49:48.104Z,20.72
2018-09-28T02:50:48.133Z,20.65
2018-09-28T02:51:48.169Z,20.72
2018-09-28T02:52:48.227Z,20.71
2018-09-28T02:53:48.265Z,20.79
2018-09-28T02:54:49.817Z,20.79
2018-09-28T02:55:48.364Z,20.79
2018-09-28T02:56:48.415Z,20.84
2018-09-28T02:57:48.465Z,20.77
2018-09-28T02:58:48.501Z,20.81
2018-09-28T02:59:48.551Z,20.79
2018-09-28T03:00:48.598Z,20.80
2018-09-28T03:01:48.626Z,20.80
2018-09-28T03:02:48.679Z,20.80
2018-09-28T03:03:48.764Z,20.76
2018-09-28T03:04:48.775Z,20.79
2018-09-28T03:05:48.841Z,20.84
2018-09-28T03:06:48.897Z,20.71
2018-09-28T03:07:48.900Z,20.74
2018-09-28T03:08:48.961Z,20.71
2018-09-28T03:09:49.011Z,20.72
2018-09-28T03:10:49.106Z,20.69
2018-09-28T03:11:49.090Z,20.65
2018-09-28T03:12:49.150Z,20.68
2018-09-28T03:13:49.235Z,20.65
2018-09-28T03:14:49.234Z,20.65
2018-09-28T03:15:49.278Z,20.68
2018-09-28T03:16:49.331Z,20.62
2018-09-28T03:17:49.365Z,20.62
2018-09-28T03:18:49.426Z,20.65
2018-09-28T03:19:49.457Z,20.50
2018-09-28T03:20:49.505Z,20.68
2018-09-28T03:21:49.549Z,20.64
2018-09-28T03:22:49.634Z,20.66
2018-09-28T03:23:49.661Z,20.76
2018-09-28T03:24:49.739Z,20.68
2018-09-28T03:25:49.824Z,20.69
2018-09-28T03:26:49.809Z,20.65
2018-09-28T03:27:49.828Z,20.66
2018-09-28T03:28:49.880Z,20.72
2018-09-28T03:29:49.925Z,20.69
2018-09-28T03:30:49.994Z,20.66
2018-09-28T03:31:50.013Z,20.71
2018-09-28T03:32:50.067Z,20.72
2018-09-28T03:33:50.118Z,20.72
2018-09-28T03:34:50.158Z,20.65
2018-09-28T03:35:50.197Z,20.69
2018-09-28T03:36:50.234Z,20.68
2018-09-28T03:37:50.293Z,20.72
2018-09-28T03:38:50.337Z,20.71
2018-09-28T03:39:50.375Z,20.68
2018-09-28T03:40:50.448Z,20.69
2018-09-28T03:41:50.516Z,20.68
2018-09-28T03:42:50.498Z,20.68
2018-09-28T03:43:50.557Z,20.69
2018-09-28T03:44:50.623Z,20.69
2018-09-28T03:45:50.671Z,20.64
2018-09-28T03:46:50.695Z,20.77
2018-09-28T03:47:50.751Z,20.72
2018-09-28T03:48:50.798Z,20.66
2018-09-28T03:49:50.852Z,20.74
2018-09-28T03:50:50.895Z,20.66
2018-09-28T03:51:50.962Z,20.69
2018-09-28T03:52:50.992Z,20.77
2018-09-28T03:53:51.033Z,20.74
2018-09-28T03:54:51.067Z,20.80
2018-09-28T03:55:51.118Z,20.83
2018-09-28T03:56:51.169Z,20.86
2018-09-28T03:57:51.199Z,20.87
2018-09-28T03:58:51.265Z,20.86
2018-09-28T03:59:51.282Z,20.84
2018-09-28T04:00:51.346Z,20.95
2018-09-28T04:01:51.381Z,20.86
2018-09-28T04:02:51.455Z,20.89
2018-09-28T04:03:51.498Z,20.84
2018-09-28T04:04:51.553Z,20.83
2018-09-28T04:05:51.570Z,20.79
2018-09-28T04:06:51.613Z,20.80
2018-09-28T04:07:51.682Z,20.84
2018-09-28T04:08:51.738Z,20.96
2018-09-28T04:09:51.757Z,20.83
2018-09-28T04:10:51.809Z,20.84
2018-09-28T04:11:51.890Z,20.84
2018-09-28T04:12:51.919Z,20.80
2018-09-28T04:13:51.941Z,20.80
2018-09-28T04:14:52.023Z,20.89
2018-09-28T04:15:52.022Z,20.87
2018-09-28T04:16:52.099Z,20.86
2018-09-28T04:17:52.132Z,20.89
2018-09-28T04:18:52.175Z,20.91
2018-09-28T04:19:52.226Z,20.96
2018-09-28T04:20:52.267Z,20.91
2018-09-28T04:21:52.350Z,20.87
2018-09-28T04:22:52.348Z,20.96
2018-09-28T04:23:52.396Z,20.80
2018-09-28T04:24:52.442Z,20.86
2018-09-28T04:25:52.500Z,20.79
2018-09-28T04:26:52.554Z,20.80
2018-09-28T04:27:52.592Z,20.93
2018-09-28T04:28:52.637Z,20.93
2018-09-28T04:29:52.684Z,20.98
2018-09-28T04:30:52.762Z,20.84
2018-09-28T04:31:52.784Z,20.95
2018-09-28T04:32:52.811Z,20.98
2018-09-28T04:33:52.872Z,20.80
2018-09-28T04:34:52.935Z,20.90
2018-09-28T04:35:52.932Z,20.87
2018-09-28T04:36:53.042Z,20.81
2018-09-28T04:37:53.055Z,20.89
2018-09-28T04:38:53.092Z,20.84
2018-09-28T04:39:53.137Z,20.84
2018-09-28T04:40:53.177Z,20.84
2018-09-28T04:41:53.211Z,20.83
2018-09-28T04:42:53.278Z,20.83
2018-09-28T04:43:53.328Z,20.89
2018-09-28T04:44:53.419Z,20.80
2018-09-28T04:45:53.401Z,20.83
2018-09-28T04:46:53.473Z,20.83
2018-09-28T04:47:53.489Z,20.80
2018-09-28T04:48:53.561Z,20.83
2018-09-28T04:49:53.605Z,20.83
2018-09-28T04:50:53.641Z,20.80
2018-09-28T04:51:53.694Z,20.81
2018-09-28T04:52:53.763Z,20.83
2018-09-28T04:53:53.774Z,20.83
2018-09-28T04:54:53.827Z,20.81
2018-09-28T04:55:53.877Z,20.86
2018-09-28T04:56:53.926Z,20.81
2018-09-28T04:57:53.947Z,20.90
2018-09-28T04:58:54.026Z,20.91
2018-09-28T04:59:54.052Z,20.89
2018-09-28T05:00:54.094Z,20.93
2018-09-28T05:01:54.153Z,20.95
2018-09-28T05:02:54.185Z,20.90
2018-09-28T05:03:54.226Z,20.91
2018-09-28T05:04:54.294Z,20.90
2018-09-28T05:05:54.337Z,20.96
2018-09-28T05:06:54.381Z,20.84
2018-09-28T05:07:54.432Z,20.90
2018-09-28T05:08:54.492Z,20.93
2018-09-28T05:09:54.521Z,20.98
2018-09-28T05:10:54.539Z,20.95
2018-09-28T05:11:54.952Z,20.96
2018-09-28T05:12:54.654Z,20.93
2018-09-28T05:13:54.697Z,21.01
2018-09-28T05:14:54.771Z,20.91
2018-09-28T05:15:54.824Z,20.95
2018-09-28T05:16:54.850Z,20.91
2018-09-28T05:17:54.871Z,20.91
2018-09-28T05:18:54.934Z,20.90
2018-09-28T05:19:54.963Z,20.89
2018-09-28T05:20:55.019Z,20.96
2018-09-28T05:21:55.071Z,20.96
2018-09-28T05:22:55.469Z,20.90
2018-09-28T05:23:55.151Z,20.98
2018-09-28T05:24:55.214Z,20.90
2018-09-28T05:25:55.238Z,20.89
2018-09-28T05:26:55.275Z,20.99
2018-09-28T05:27:55.339Z,20.96
2018-09-28T05:28:55.387Z,20.95
2018-09-28T05:29:55.440Z,20.98
2018-09-28T05:30:55.520Z,20.93
2018-09-28T05:31:55.672Z,20.93
2018-09-28T05:32:55.644Z,20.93
2018-09-28T05:33:55.906Z,20.83
2018-09-28T05:34:55.658Z,20.80
2018-09-28T05:35:55.720Z,20.81
2018-09-28T05:36:55.761Z,20.84
2018-09-28T05:37:55.802Z,20.79
2018-09-28T05:38:55.860Z,20.76
2018-09-28T05:39:55.895Z,20.80
2018-09-28T05:40:55.918Z,20.81
2018-09-28T05:41:55.988Z,20.76
2018-09-28T05:42:56.038Z,20.81
2018-09-28T05:43:56.064Z,20.83
2018-09-28T05:44:56.372Z,20.72
2018-09-28T05:45:56.178Z,20.68
2018-09-28T05:46:56.216Z,20.76
2018-09-28T05:47:56.254Z,20.65
2018-09-28T05:48:56.318Z,20.74
2018-09-28T05:49:56.367Z,20.65
2018-09-28T05:50:56.437Z,20.68
2018-09-28T05:51:56.424Z,20.68
2018-09-28T05:52:56.516Z,20.66
2018-09-28T05:53:56.542Z,20.69
2018-09-28T05:54:56.573Z,20.68
2018-09-28T05:55:56.640Z,20.69
2018-09-28T05:56:56.691Z,20.71
2018-09-28T05:57:56.721Z,20.66
2018-09-28T05:58:56.781Z,20.69
2018-09-28T05:59:56.820Z,20.68
2018-09-28T06:00:56.860Z,20.68
2018-09-28T06:01:56.939Z,20.66
2018-09-28T06:02:56.939Z,20.62
2018-09-28T06:03:56.995Z,20.58
2018-09-28T06:04:57.334Z,20.58
2018-09-28T06:05:57.086Z,20.64
2018-09-28T06:06:57.130Z,20.64
2018-09-28T06:07:57.185Z,20.69
2018-09-28T06:08:57.233Z,20.64
2018-09-28T06:09:57.257Z,20.56
2018-09-28T06:10:57.325Z,20.59
2018-09-28T06:11:57.357Z,20.65
2018-09-28T06:12:57.398Z,20.56
2018-09-28T06:13:57.468Z,20.62
2018-09-28T06:14:57.511Z,20.51
2018-09-28T06:15:57.781Z,20.61
2018-09-28T06:16:57.597Z,20.54
2018-09-28T06:17:57.653Z,20.50
2018-09-28T06:18:57.730Z,20.50
2018-09-28T06:19:57.739Z,20.47
2018-09-28T06:20:57.749Z,20.47
2018-09-28T06:21:57.843Z,20.46
2018-09-28T06:22:57.854Z,20.46
2018-09-28T06:23:57.895Z,20.38
2018-09-28T06:24:57.944Z,20.33
2018-09-28T06:25:58.062Z,20.38
2018-09-28T06:26:58.037Z,20.30
2018-09-28T06:27:58.114Z,20.33
2018-09-28T06:28:58.135Z,20.24
2018-09-28T06:29:58.290Z,20.20
2018-09-28T06:30:58.219Z,20.25
2018-09-28T06:31:58.273Z,20.27
2018-09-28T06:32:58.315Z,20.31
2018-09-28T06:33:58.361Z,20.23
2018-09-28T06:34:58.414Z,20.27
2018-09-28T06:35:58.486Z,20.24
2018-09-28T06:36:58.489Z,20.15
2018-09-28T06:37:58.557Z,20.08
2018-09-28T06:38:58.579Z,20.21
2018-09-28T06:39:58.622Z,20.09
2018-09-28T06:40:58.678Z,20.13
2018-09-28T06:41:58.775Z,20.09
2018-09-28T06:42:58.772Z,20.10
2018-09-28T06:43:58.797Z,20.16
2018-09-28T06:44:58.834Z,20.12
2018-09-28T06:45:58.873Z,20.13
2018-09-28T06:46:58.964Z,20.15
2018-09-28T06:47:59.033Z,20.13
2018-09-28T06:48:59.055Z,20.10
2018-09-28T06:49:59.064Z,20.16
2018-09-28T06:50:59.117Z,20.18
2018-09-28T06:51:59.152Z,20.13
2018-09-28T06:52:59.262Z,20.15
2018-09-28T06:53:59.381Z,20.16
2018-09-28T06:54:59.303Z,20.13
2018-09-28T06:55:59.337Z,20.15
2018-09-28T06:56:59.401Z,20.03
2018-09-28T06:57:59.481Z,20.03
2018-09-28T06:58:59.479Z,20.09
2018-09-28T06:59:59.599Z,20.03
2018-09-28T07:00:59.592Z,20.05
2018-09-28T07:01:59.630Z,20.02
2018-09-28T07:02:59.668Z,20.03
2018-09-28T07:03:59.791Z,20.10
2018-09-28T07:04:59.758Z,20.12
2018-09-28T07:05:59.995Z,20.12
2018-09-28T07:06:59.835Z,20.10
2018-09-28T07:07:59.878Z,20.00
2018-09-28T07:08:59.946Z,20.02
2018-09-28T07:09:59.999Z,19.98
2018-09-28T07:11:00.036Z,20.10
2018-09-28T07:12:00.191Z,20.12
2018-09-28T07:13:00.163Z,19.98
2018-09-28T07:14:00.178Z,20.06
2018-09-28T07:15:00.200Z,20.12
2018-09-28T07:16:00.272Z,20.10
2018-09-28T07:17:00.297Z,20.10
2018-09-28T07:18:00.508Z,20.13
2018-09-28T07:19:00.398Z,20.10
2018-09-28T07:20:00.426Z,20.13
2018-09-28T07:21:00.486Z,20.15
2018-09-28T07:22:00.505Z,20.13
2018-09-28T07:23:00.574Z,20.15
2018-09-28T07:24:00.760Z,20.10
2018-09-28T07:25:00.703Z,20.16
2018-09-28T07:26:00.709Z,20.00
2018-09-28T07:27:00.780Z,20.05
2018-09-28T07:28:00.868Z,20.16
2018-09-28T07:29:00.847Z,20.13
2018-09-28T07:30:00.869Z,20.13
2018-09-28T07:31:00.989Z,20.13
2018-09-28T07:32:01.003Z,20.02
2018-09-28T07:33:01.015Z,20.03
2018-09-28T07:34:01.126Z,19.97
2018-09-28T07:35:01.174Z,20.06
2018-09-28T07:36:01.415Z,20.08
2018-09-28T07:37:01.391Z,20.10
2018-09-28T07:38:01.639Z,20.06
2018-09-28T07:39:01.296Z,20.06
2018-09-28T07:40:01.342Z,20.09
2018-09-28T07:41:01.415Z,20.09
2018-09-28T07:42:01.518Z,20.08
2018-09-28T07:43:01.461Z,20.00
2018-09-28T07:44:01.527Z,20.08
2018-09-28T07:45:01.565Z,20.02
2018-09-28T07:46:01.650Z,20.00
2018-09-28T07:47:01.668Z,20.00
2018-09-28T07:48:01.692Z,20.09
2018-09-28T07:49:01.811Z,20.00
2018-09-28T07:50:01.797Z,20.00
2018-09-28T07:51:01.823Z,20.02
2018-09-28T07:52:01.888Z,20.02
2018-09-28T07:53:01.948Z,20.06
2018-09-28T07:54:01.977Z,20.09
2018-09-28T07:55:02.011Z,20.09
2018-09-28T07:56:02.068Z,19.98
2018-09-28T07:57:02.108Z,20.05
2018-09-28T07:58:02.144Z,20.08
2018-09-28T07:59:02.204Z,20.08
2018-09-28T08:00:02.280Z,20.08
2018-09-28T08:01:02.266Z,20.02
2018-09-28T08:02:02.327Z,19.98
2018-09-28T08:03:02.419Z,19.98
2018-09-28T08:04:02.614Z,19.98
2018-09-28T08:05:02.470Z,19.97
2018-09-28T08:06:02.500Z,20.03
2018-09-28T08:07:02.573Z,20.02
2018-09-28T08:08:02.599Z,20.05
2018-09-28T08:09:02.699Z,20.05
2018-09-28T08:10:02.698Z,19.95
2018-09-28T08:11:02.983Z,19.95
2018-09-28T08:12:02.790Z,20.02
2018-09-28T08:13:02.826Z,20.03
2018-09-28T08:14:02.857Z,20.09
2018-09-28T08:15:02.909Z,20.03
2018-09-28T08:16:02.970Z,20.05
2018-09-28T08:17:03.022Z,20.08
2018-09-28T08:18:03.126Z,20.03
2018-09-28T08:19:03.109Z,20.00
2018-09-28T08:20:03.123Z,20.08
2018-09-28T08:21:03.198Z,20.02
2018-09-28T08:22:03.531Z,20.13
2018-09-28T08:23:03.292Z,20.13
2018-09-28T08:24:03.337Z,20.12
2018-09-28T08:25:03.360Z,20.16
2018-09-28T08:26:03.453Z,20.21
2018-09-28T08:27:03.478Z,20.13
2018-09-28T08:28:03.502Z,20.23
2018-09-28T08:29:03.557Z,20.21
2018-09-28T08:30:03.609Z,20.25
2018-09-28T08:31:03.624Z,20.24
2018-09-28T08:32:03.689Z,20.15
2018-09-28T08:33:03.741Z,20.23
2018-09-28T08:34:03.789Z,20.23
2018-09-28T08:35:03.839Z,20.20
2018-09-28T08:36:03.874Z,20.12
2018-09-28T08:37:03.927Z,20.23
2018-09-28T08:38:03.961Z,20.18
2018-09-28T08:39:03.991Z,20.27
2018-09-28T08:40:04.043Z,20.23
2018-09-28T08:41:04.145Z,20.21
2018-09-28T08:42:04.153Z,20.28
2018-09-28T08:43:04.177Z,20.21
2018-09-28T08:44:04.227Z,20.30
2018-09-28T08:45:04.281Z,20.21
2018-09-28T08:46:04.328Z,20.25
2018-09-28T08:47:04.356Z,20.28
2018-09-28T08:48:04.424Z,20.20
2018-09-28T08:49:04.533Z,20.25
2018-09-28T08:50:04.503Z,20.28
2018-09-28T08:51:04.565Z,20.24
2018-09-28T08:52:04.600Z,20.30
2018-09-28T08:53:04.635Z,20.24
2018-09-28T08:54:04.712Z,20.24
2018-09-28T08:55:04.742Z,20.25
2018-09-28T08:56:04.792Z,20.27
2018-09-28T08:57:04.818Z,20.31
2018-09-28T08:58:05.117Z,20.27
2018-09-28T08:59:04.905Z,20.28
2018-09-28T09:00:04.962Z,20.21
2018-09-28T09:01:04.998Z,20.31
2018-09-28T09:02:05.052Z,20.25
2018-09-28T09:03:05.139Z,20.38
2018-09-28T09:04:05.137Z,20.31
2018-09-28T09:05:05.191Z,20.30
2018-09-28T09:06:05.227Z,20.34
2018-09-28T09:07:05.273Z,20.35
2018-09-28T09:08:05.299Z,20.34
2018-09-28T09:09:05.377Z,20.33
2018-09-28T09:10:05.425Z,20.28
2018-09-28T09:11:05.463Z,20.33
2018-09-28T09:12:05.507Z,20.35
2018-09-28T09:13:05.561Z,20.38
2018-09-28T09:14:05.596Z,20.34
2018-09-28T09:15:05.678Z,20.39
2018-09-28T09:16:05.687Z,20.41
2018-09-28T09:17:05.723Z,20.35
2018-09-28T09:18:05.934Z,20.35
2018-09-28T09:19:06.133Z,20.35
2018-09-28T09:20:05.856Z,20.33
2018-09-28T09:21:05.882Z,20.30
2018-09-28T09:22:05.980Z,20.35
2018-09-28T09:23:06.051Z,20.41
2018-09-28T09:24:06.041Z,20.35
2018-09-28T09:25:06.132Z,20.38
2018-09-28T09:26:06.111Z,20.42
2018-09-28T09:27:06.184Z,20.34
2018-09-28T09:28:06.231Z,20.35
2018-09-28T09:29:06.288Z,20.46
2018-09-28T09:30:06.372Z,20.43
2018-09-28T09:31:06.370Z,20.43
2018-09-28T09:32:06.393Z,20.38
2018-09-28T09:33:06.431Z,20.39
2018-09-28T09:34:06.479Z,20.42
2018-09-28T09:35:06.530Z,20.42
2018-09-28T09:36:06.571Z,20.43
2018-09-28T09:37:06.625Z,20.43
2018-09-28T09:38:06.667Z,20.47
2018-09-28T09:39:06.725Z,20.42
2018-09-28T09:40:06.760Z,20.43
2018-09-28T09:41:06.816Z,20.46
2018-09-28T09:42:06.873Z,20.46
2018-09-28T09:43:06.897Z,20.51
2018-09-28T09:44:06.959Z,20.46
2018-09-28T09:45:07.017Z,20.56
2018-09-28T09:46:07.025Z,20.54
2018-09-28T09:47:07.083Z,20.50
2018-09-28T09:48:07.172Z,20.54
2018-09-28T09:49:07.175Z,20.51
2018-09-28T09:50:07.233Z,20.51
2018-09-28T09:51:07.272Z,20.56
2018-09-28T09:52:07.342Z,20.53
2018-09-28T09:53:07.369Z,20.62
2018-09-28T09:54:07.413Z,20.68
2018-09-28T09:55:07.457Z,20.72
2018-09-28T09:56:07.501Z,20.68
2018-09-28T09:57:07.563Z,20.71
2018-09-28T09:58:07.651Z,20.66
2018-09-28T09:59:07.638Z,20.83
2018-09-28T10:00:07.700Z,20.76
2018-09-28T10:01:07.753Z,20.83
2018-09-28T10:02:07.781Z,20.69
2018-09-28T10:03:07.832Z,20.69
2018-09-28T10:04:07.858Z,20.66
2018-09-28T10:05:07.931Z,20.68
2018-09-28T10:06:07.955Z,20.81
2018-09-28T10:07:07.979Z,20.80
2018-09-28T10:08:08.047Z,20.86
2018-09-28T10:09:08.105Z,20.83
2018-09-28T10:10:08.130Z,20.90
2018-09-28T10:11:08.186Z,20.95
2018-09-28T10:12:08.250Z,20.99
2018-09-28T10:13:08.332Z,21.06
2018-09-28T10:14:08.313Z,21.11
2018-09-28T10:15:08.375Z,20.99
2018-09-28T10:16:08.428Z,21.06
2018-09-28T10:17:08.466Z,21.19
2018-09-28T10:18:08.520Z,21.20
2018-09-28T10:19:08.590Z,21.26
2018-09-28T10:20:08.589Z,21.26
2018-09-28T10:21:08.689Z,21.38
2018-09-28T10:22:08.700Z,21.35
2018-09-28T10:23:08.748Z,21.34
2018-09-28T10:24:08.789Z,21.36
2018-09-28T10:25:08.824Z,21.39
2018-09-28T10:26:08.930Z,21.39
2018-09-28T10:27:08.973Z,21.35
2018-09-28T10:28:09.037Z,21.38
2018-09-28T10:29:09.036Z,21.45
2018-09-28T10:30:09.083Z,21.57
2018-09-28T10:31:09.119Z,21.57
2018-09-28T10:32:09.152Z,21.75
2018-09-28T10:33:09.229Z,21.81
2018-09-28T10:34:09.263Z,21.78
2018-09-28T10:35:09.430Z,21.82
2018-09-28T10:36:09.352Z,21.83
2018-09-28T10:37:09.401Z,21.91
2018-09-28T10:38:09.436Z,21.92
2018-09-28T10:39:09.522Z,22.07
2018-09-28T10:40:09.621Z,22.16
2018-09-28T10:41:09.649Z,22.28
2018-09-28T10:42:09.639Z,22.41
2018-09-28T10:43:09.695Z,22.39
2018-09-28T10:44:09.716Z,22.43
2018-09-28T10:45:09.813Z,22.53
2018-09-28T10:46:09.829Z,22.49
2018-09-28T10:47:09.871Z,22.59
2018-09-28T10:48:09.902Z,22.68
2018-09-28T10:49:10.029Z,22.56
2018-09-28T10:50:10.062Z,22.59
2018-09-28T10:51:10.098Z,22.50
2018-09-28T10:52:10.385Z,22.59
2018-09-28T10:53:10.181Z,22.69
2018-09-28T10:54:10.229Z,22.64
2018-09-28T10:55:10.245Z,22.60
2018-09-28T10:56:10.338Z,22.50
2018-09-28T10:57:10.405Z,22.41
2018-09-28T10:58:10.404Z,22.31
2018-09-28T10:59:10.448Z,22.29
2018-09-28T11:00:10.493Z,22.32
2018-09-28T11:01:10.544Z,22.27
2018-09-28T11:02:10.577Z,22.28
2018-09-28T11:03:10.653Z,22.19
2018-09-28T11:04:10.748Z,22.13
2018-09-28T11:05:10.726Z,22.14
2018-09-28T11:06:10.797Z,22.14
2018-09-28T11:07:10.820Z,22.07
2018-09-28T11:08:10.858Z,22.13
2018-09-28T11:09:10.954Z,21.98
2018-09-28T11:10:11.023Z,21.99
2018-09-28T11:11:11.048Z,21.95
2018-09-28T11:12:11.105Z,22.06
2018-09-28T11:13:11.091Z,22.10
2018-09-28T11:14:11.163Z,22.04
2018-09-28T11:15:11.258Z,22.17
2018-09-28T11:16:11.257Z,22.25
2018-09-28T11:17:11.308Z,22.25
2018-09-28T11:18:11.356Z,22.34
2018-09-28T11:19:11.402Z,22.31
2018-09-28T11:20:11.452Z,22.31
2018-09-28T11:21:11.496Z,22.22
2018-09-28T11:22:11.551Z,22.20
2018-09-28T11:23:11.586Z,22.22
2018-09-28T11:24:11.649Z,22.17
2018-09-28T11:25:11.700Z,22.19
2018-09-28T11:26:11.746Z,22.19
2018-09-28T11:27:11.794Z,22.17
2018-09-28T11:28:11.825Z,22.17
2018-09-28T11:29:11.874Z,22.17
2018-09-28T11:30:11.924Z,22.22
2018-09-28T11:31:11.955Z,22.20
2018-09-28T11:32:12.026Z,22.14
2018-09-28T11:33:12.090Z,22.19
2018-09-28T11:34:12.098Z,22.04
2018-09-28T11:35:12.220Z,21.99
2018-09-28T11:36:12.202Z,22.02
2018-09-28T11:37:12.259Z,21.97
2018-09-28T11:38:12.312Z,22.01
2018-09-28T11:39:12.358Z,22.01
2018-09-28T11:40:12.401Z,22.07
2018-09-28T11:41:12.452Z,22.04
2018-09-28T11:42:12.496Z,21.95
2018-09-28T11:43:12.543Z,21.91
2018-09-28T11:44:12.582Z,21.92
2018-09-28T11:45:12.635Z,21.95
2018-09-28T11:46:12.666Z,21.97
2018-09-28T11:47:12.725Z,21.97
2018-09-28T11:48:12.757Z,21.95
2018-09-28T11:49:12.870Z,22.02
2018-09-28T11:50:12.858Z,21.97
2018-09-28T11:51:12.959Z,21.94
2018-09-28T11:52:12.971Z,22.07
2018-09-28T11:53:13.001Z,22.13
2018-09-28T11:54:13.037Z,22.19
2018-09-28T11:55:13.078Z,22.22
2018-09-28T11:56:13.144Z,22.20
2018-09-28T11:57:13.204Z,22.20
2018-09-28T11:58:13.251Z,22.29
2018-09-28T11:59:13.284Z,22.23
2018-09-28T12:00:13.335Z,22.37
2018-09-28T12:01:13.389Z,22.37
2018-09-28T12:02:13.434Z,22.44
2018-09-28T12:03:13.498Z,22.43
2018-09-28T12:04:13.526Z,22.56
2018-09-28T12:05:13.698Z,22.56
2018-09-28T12:06:13.686Z,22.68
2018-09-28T12:07:13.709Z,22.65
2018-09-28T12:08:13.694Z,22.56
2018-09-28T12:09:13.822Z,22.44
2018-09-28T12:10:13.853Z,22.47
2018-09-28T12:11:13.863Z,22.35
2018-09-28T12:12:13.974Z,22.46
2018-09-28T12:13:13.952Z,22.44
2018-09-28T12:14:14.003Z,22.39
2018-09-28T12:15:14.091Z,22.37
2018-09-28T12:16:14.078Z,22.34
2018-09-28T12:17:14.146Z,22.38
2018-09-28T12:18:14.240Z,22.38
2018-09-28T12:19:14.232Z,22.38
2018-09-28T12:20:14.282Z,22.37
2018-09-28T12:21:14.383Z,22.50
2018-09-28T12:22:14.377Z,22.54
2018-09-28T12:23:14.438Z,22.65
2018-09-28T12:24:14.506Z,22.65
2018-09-28T12:25:14.522Z,22.60
2018-09-28T12:26:14.556Z,22.64
2018-09-28T12:27:14.641Z,22.69
2018-09-28T12:28:14.638Z,22.64
2018-09-28T12:29:14.712Z,22.64
2018-09-28T12:30:14.844Z,22.64
2018-09-28T12:31:14.812Z,22.67
2018-09-28T12:32:14.836Z,22.60
2018-09-28T12:33:14.950Z,22.82
2018-09-28T12:34:14.962Z,22.80
2018-09-28T12:35:14.999Z,22.99
2018-09-28T12:36:15.155Z,22.99
2018-09-28T12:37:15.092Z,22.99
2018-09-28T12:38:15.146Z,23.14
2018-09-28T12:39:15.251Z,23.22
2018-09-28T12:40:15.259Z,23.23
2018-09-28T12:41:15.265Z,23.39
2018-09-28T12:42:15.400Z,23.39
2018-09-28T12:43:15.366Z,23.50
2018-09-28T12:44:15.522Z,23.57
2018-09-28T12:45:15.577Z,23.70
2018-09-28T12:46:15.542Z,23.72
2018-09-28T12:47:15.558Z,23.82
2018-09-28T12:48:15.700Z,23.86
2018-09-28T12:49:15.717Z,23.94
2018-09-28T12:50:15.797Z,24.00
2018-09-28T12:51:15.788Z,24.01
2018-09-28T12:52:15.870Z,24.12
2018-09-28T12:53:15.875Z,24.12